sensor_id;sensor_type;location;lat;lon;timestamp;P1;durP1;ratioP1;P2;durP2;ratioP2
13343;SDS011;6741;48.964;9.406;2023-12-20T00:00:20;12.43;;;9.23;;
13343;SDS011;6741;48.964;9.406;2023-12-20T00:02:47;11.73;;;8.77;;
13343;SDS011;6741;48.964;9.406;2023-12-20T00:05:14;8.97;;;7.57;;
13343;SDS011;6741;48.964;9.406;2023-12-20T00:07:41;10.37;;;8.07;;
13343;SDS011;6741;48.964;9.406;2023-12-20T00:10:08;9.17;;;7.43;;
13343;SDS011;6741;48.964;9.406;2023-12-20T00:12:35;9.30;;;7.93;;
13343;SDS011;6741;48.964;9.406;2023-12-20T00:15:04;11.10;;;8.37;;
13343;SDS011;6741;48.964;9.406;2023-12-20T00:17:31;10.57;;;7.83;;
13343;SDS011;6741;48.964;9.406;2023-12-20T00:19:58;10.83;;;7.87;;
13343;SDS011;6741;48.964;9.406;2023-12-20T00:22:24;12.07;;;7.90;;
13343;SDS011;6741;48.964;9.406;2023-12-20T00:24:51;10.50;;;8.03;;
13343;SDS011;6741;48.964;9.406;2023-12-20T00:27:18;9.83;;;7.83;;
13343;SDS011;6741;48.964;9.406;2023-12-20T00:29:45;11.00;;;8.17;;
13343;SDS011;6741;48.964;9.406;2023-12-20T00:32:16;9.50;;;8.07;;
13343;SDS011;6741;48.964;9.406;2023-12-20T00:34:43;9.40;;;7.80;;
13343;SDS011;6741;48.964;9.406;2023-12-20T00:37:10;11.43;;;8.13;;
13343;SDS011;6741;48.964;9.406;2023-12-20T00:39:37;11.27;;;8.30;;
13343;SDS011;6741;48.964;9.406;2023-12-20T00:42:04;10.43;;;7.50;;
13343;SDS011;6741;48.964;9.406;2023-12-20T00:44:31;9.90;;;7.33;;
13343;SDS011;6741;48.964;9.406;2023-12-20T00:46:58;10.23;;;7.83;;
13343;SDS011;6741;48.964;9.406;2023-12-20T00:49:26;8.87;;;7.57;;
13343;SDS011;6741;48.964;9.406;2023-12-20T00:51:53;10.27;;;7.87;;
13343;SDS011;6741;48.964;9.406;2023-12-20T00:54:19;10.87;;;7.93;;
13343;SDS011;6741;48.964;9.406;2023-12-20T00:56:46;10.83;;;8.50;;
13343;SDS011;6741;48.964;9.406;2023-12-20T00:59:13;8.80;;;6.90;;
13343;SDS011;6741;48.964;9.406;2023-12-20T01:01:41;8.83;;;7.37;;
13343;SDS011;6741;48.964;9.406;2023-12-20T01:04:08;9.70;;;7.97;;
13343;SDS011;6741;48.964;9.406;2023-12-20T01:06:36;13.83;;;9.07;;
13343;SDS011;6741;48.964;9.406;2023-12-20T01:09:03;12.93;;;9.17;;
13343;SDS011;6741;48.964;9.406;2023-12-20T01:11:30;14.43;;;10.17;;
13343;SDS011;6741;48.964;9.406;2023-12-20T01:13:57;12.37;;;10.07;;
13343;SDS011;6741;48.964;9.406;2023-12-20T01:16:24;13.80;;;10.27;;
13343;SDS011;6741;48.964;9.406;2023-12-20T01:18:51;12.93;;;10.50;;
13343;SDS011;6741;48.964;9.406;2023-12-20T01:21:17;12.67;;;10.23;;
13343;SDS011;6741;48.964;9.406;2023-12-20T01:23:45;12.57;;;9.70;;
13343;SDS011;6741;48.964;9.406;2023-12-20T01:26:12;11.17;;;10.00;;
13343;SDS011;6741;48.964;9.406;2023-12-20T01:28:40;13.80;;;10.27;;
13343;SDS011;6741;48.964;9.406;2023-12-20T01:31:08;12.77;;;10.20;;
13343;SDS011;6741;48.964;9.406;2023-12-20T01:33:35;13.40;;;10.70;;
13343;SDS011;6741;48.964;9.406;2023-12-20T01:36:02;14.20;;;11.33;;
13343;SDS011;6741;48.964;9.406;2023-12-20T01:38:29;14.40;;;11.30;;
13343;SDS011;6741;48.964;9.406;2023-12-20T01:40:57;13.97;;;10.40;;
13343;SDS011;6741;48.964;9.406;2023-12-20T01:43:24;14.60;;;10.90;;
13343;SDS011;6741;48.964;9.406;2023-12-20T01:45:51;13.87;;;10.57;;
13343;SDS011;6741;48.964;9.406;2023-12-20T01:48:18;11.43;;;9.43;;
13343;SDS011;6741;48.964;9.406;2023-12-20T01:50:46;11.33;;;9.13;;
13343;SDS011;6741;48.964;9.406;2023-12-20T01:53:14;11.20;;;8.20;;
13343;SDS011;6741;48.964;9.406;2023-12-20T01:55:42;12.17;;;9.00;;
13343;SDS011;6741;48.964;9.406;2023-12-20T01:58:12;11.47;;;8.60;;
13343;SDS011;6741;48.964;9.406;2023-12-20T02:00:40;9.90;;;8.40;;
13343;SDS011;6741;48.964;9.406;2023-12-20T02:03:08;11.13;;;8.33;;
13343;SDS011;6741;48.964;9.406;2023-12-20T02:05:35;9.20;;;7.83;;
13343;SDS011;6741;48.964;9.406;2023-12-20T02:08:03;10.50;;;7.27;;
13343;SDS011;6741;48.964;9.406;2023-12-20T02:10:30;9.53;;;8.03;;
13343;SDS011;6741;48.964;9.406;2023-12-20T02:12:58;9.93;;;8.00;;
13343;SDS011;6741;48.964;9.406;2023-12-20T02:15:26;11.17;;;8.30;;
13343;SDS011;6741;48.964;9.406;2023-12-20T02:17:53;10.03;;;7.47;;
13343;SDS011;6741;48.964;9.406;2023-12-20T02:20:20;10.53;;;8.07;;
13343;SDS011;6741;48.964;9.406;2023-12-20T02:22:48;9.93;;;7.50;;
13343;SDS011;6741;48.964;9.406;2023-12-20T02:25:15;8.77;;;7.40;;
13343;SDS011;6741;48.964;9.406;2023-12-20T02:27:42;9.47;;;7.80;;
13343;SDS011;6741;48.964;9.406;2023-12-20T02:30:10;9.70;;;7.30;;
13343;SDS011;6741;48.964;9.406;2023-12-20T02:32:37;8.70;;;7.00;;
13343;SDS011;6741;48.964;9.406;2023-12-20T02:35:04;9.40;;;7.33;;
13343;SDS011;6741;48.964;9.406;2023-12-20T02:37:32;8.17;;;7.20;;
13343;SDS011;6741;48.964;9.406;2023-12-20T02:40:01;8.73;;;6.57;;
13343;SDS011;6741;48.964;9.406;2023-12-20T02:42:29;8.10;;;6.70;;
13343;SDS011;6741;48.964;9.406;2023-12-20T02:44:56;7.47;;;6.67;;
13343;SDS011;6741;48.964;9.406;2023-12-20T02:47:23;7.00;;;6.03;;
13343;SDS011;6741;48.964;9.406;2023-12-20T02:49:50;6.37;;;5.73;;
13343;SDS011;6741;48.964;9.406;2023-12-20T02:52:17;7.30;;;6.00;;
13343;SDS011;6741;48.964;9.406;2023-12-20T02:54:44;7.77;;;5.70;;
13343;SDS011;6741;48.964;9.406;2023-12-20T02:57:13;6.67;;;5.67;;
13343;SDS011;6741;48.964;9.406;2023-12-20T02:59:39;7.43;;;6.30;;
13343;SDS011;6741;48.964;9.406;2023-12-20T03:02:06;8.27;;;6.60;;
13343;SDS011;6741;48.964;9.406;2023-12-20T03:04:33;7.40;;;5.97;;
13343;SDS011;6741;48.964;9.406;2023-12-20T03:07:00;6.37;;;5.60;;
13343;SDS011;6741;48.964;9.406;2023-12-20T03:09:27;7.00;;;5.50;;
13343;SDS011;6741;48.964;9.406;2023-12-20T03:11:54;6.67;;;5.27;;
13343;SDS011;6741;48.964;9.406;2023-12-20T03:14:22;6.90;;;5.50;;
13343;SDS011;6741;48.964;9.406;2023-12-20T03:16:49;6.37;;;4.60;;
13343;SDS011;6741;48.964;9.406;2023-12-20T03:19:16;5.93;;;4.53;;
13343;SDS011;6741;48.964;9.406;2023-12-20T03:21:43;4.33;;;3.60;;
13343;SDS011;6741;48.964;9.406;2023-12-20T03:24:10;4.13;;;2.93;;
13343;SDS011;6741;48.964;9.406;2023-12-20T03:26:37;2.57;;;2.37;;
13343;SDS011;6741;48.964;9.406;2023-12-20T03:29:04;1.87;;;1.77;;
13343;SDS011;6741;48.964;9.406;2023-12-20T03:31:32;1.60;;;1.50;;
13343;SDS011;6741;48.964;9.406;2023-12-20T03:33:59;1.60;;;1.50;;
13343;SDS011;6741;48.964;9.406;2023-12-20T03:36:26;1.17;;;1.10;;
13343;SDS011;6741;48.964;9.406;2023-12-20T03:38:53;1.30;;;1.20;;
13343;SDS011;6741;48.964;9.406;2023-12-20T03:41:20;1.07;;;1.00;;
13343;SDS011;6741;48.964;9.406;2023-12-20T03:43:48;1.63;;;0.97;;
13343;SDS011;6741;48.964;9.406;2023-12-20T03:46:15;1.97;;;1.10;;
13343;SDS011;6741;48.964;9.406;2023-12-20T03:48:43;0.90;;;0.90;;
13343;SDS011;6741;48.964;9.406;2023-12-20T03:51:09;1.07;;;1.00;;
13343;SDS011;6741;48.964;9.406;2023-12-20T03:53:37;0.90;;;0.90;;
13343;SDS011;6741;48.964;9.406;2023-12-20T03:56:05;0.90;;;0.90;;
13343;SDS011;6741;48.964;9.406;2023-12-20T03:58:32;0.67;;;0.67;;
13343;SDS011;6741;48.964;9.406;2023-12-20T04:00:59;0.80;;;0.80;;
13343;SDS011;6741;48.964;9.406;2023-12-20T04:03:26;0.87;;;0.87;;
13343;SDS011;6741;48.964;9.406;2023-12-20T04:05:54;1.20;;;1.10;;
13343;SDS011;6741;48.964;9.406;2023-12-20T04:08:21;1.10;;;1.10;;
13343;SDS011;6741;48.964;9.406;2023-12-20T04:10:48;1.00;;;1.00;;
13343;SDS011;6741;48.964;9.406;2023-12-20T04:13:15;0.90;;;0.90;;
13343;SDS011;6741;48.964;9.406;2023-12-20T04:15:42;1.90;;;0.93;;
13343;SDS011;6741;48.964;9.406;2023-12-20T04:18:09;0.93;;;0.90;;
13343;SDS011;6741;48.964;9.406;2023-12-20T04:20:36;1.23;;;1.13;;
13343;SDS011;6741;48.964;9.406;2023-12-20T04:23:04;0.90;;;0.90;;
13343;SDS011;6741;48.964;9.406;2023-12-20T04:25:31;0.93;;;0.93;;
13343;SDS011;6741;48.964;9.406;2023-12-20T04:27:58;1.30;;;1.20;;
13343;SDS011;6741;48.964;9.406;2023-12-20T04:30:25;1.20;;;1.13;;
13343;SDS011;6741;48.964;9.406;2023-12-20T04:32:51;1.10;;;1.10;;
13343;SDS011;6741;48.964;9.406;2023-12-20T04:35:18;1.23;;;1.00;;
13343;SDS011;6741;48.964;9.406;2023-12-20T04:37:45;1.37;;;1.07;;
13343;SDS011;6741;48.964;9.406;2023-12-20T04:40:15;0.80;;;0.80;;
13343;SDS011;6741;48.964;9.406;2023-12-20T04:42:42;1.33;;;1.13;;
13343;SDS011;6741;48.964;9.406;2023-12-20T04:45:09;1.07;;;1.07;;
13343;SDS011;6741;48.964;9.406;2023-12-20T04:47:38;1.40;;;1.30;;
13343;SDS011;6741;48.964;9.406;2023-12-20T04:50:05;1.33;;;1.23;;
13343;SDS011;6741;48.964;9.406;2023-12-20T04:52:33;1.13;;;1.10;;
13343;SDS011;6741;48.964;9.406;2023-12-20T04:55:00;0.70;;;0.70;;
13343;SDS011;6741;48.964;9.406;2023-12-20T04:57:28;1.37;;;1.27;;
13343;SDS011;6741;48.964;9.406;2023-12-20T04:59:56;1.30;;;1.20;;
13343;SDS011;6741;48.964;9.406;2023-12-20T05:02:23;1.30;;;1.20;;
13343;SDS011;6741;48.964;9.406;2023-12-20T05:04:50;1.50;;;1.40;;
13343;SDS011;6741;48.964;9.406;2023-12-20T05:07:16;1.50;;;1.40;;
13343;SDS011;6741;48.964;9.406;2023-12-20T05:09:43;2.33;;;1.53;;
13343;SDS011;6741;48.964;9.406;2023-12-20T05:12:10;1.70;;;1.60;;
13343;SDS011;6741;48.964;9.406;2023-12-20T05:14:38;1.70;;;1.60;;
13343;SDS011;6741;48.964;9.406;2023-12-20T05:17:05;1.70;;;1.60;;
13343;SDS011;6741;48.964;9.406;2023-12-20T05:19:32;1.77;;;1.67;;
13343;SDS011;6741;48.964;9.406;2023-12-20T05:22:00;1.83;;;1.60;;
13343;SDS011;6741;48.964;9.406;2023-12-20T05:24:27;2.20;;;2.00;;
13343;SDS011;6741;48.964;9.406;2023-12-20T05:26:54;2.10;;;1.90;;
13343;SDS011;6741;48.964;9.406;2023-12-20T05:29:21;1.90;;;1.80;;
13343;SDS011;6741;48.964;9.406;2023-12-20T05:31:49;2.57;;;2.37;;
13343;SDS011;6741;48.964;9.406;2023-12-20T05:34:16;2.40;;;2.20;;
13343;SDS011;6741;48.964;9.406;2023-12-20T05:36:43;5.73;;;3.77;;
13343;SDS011;6741;48.964;9.406;2023-12-20T05:39:10;2.70;;;2.50;;
13343;SDS011;6741;48.964;9.406;2023-12-20T05:41:37;3.03;;;2.73;;
13343;SDS011;6741;48.964;9.406;2023-12-20T05:44:03;3.67;;;2.83;;
13343;SDS011;6741;48.964;9.406;2023-12-20T05:46:30;3.50;;;3.20;;
13343;SDS011;6741;48.964;9.406;2023-12-20T05:48:59;5.37;;;4.20;;
13343;SDS011;6741;48.964;9.406;2023-12-20T05:51:26;5.40;;;3.50;;
13343;SDS011;6741;48.964;9.406;2023-12-20T05:53:53;4.37;;;3.97;;
13343;SDS011;6741;48.964;9.406;2023-12-20T05:56:19;4.60;;;4.20;;
13343;SDS011;6741;48.964;9.406;2023-12-20T05:58:47;4.67;;;4.27;;
13343;SDS011;6741;48.964;9.406;2023-12-20T06:01:14;5.43;;;4.87;;
13343;SDS011;6741;48.964;9.406;2023-12-20T06:03:42;5.10;;;4.60;;
13343;SDS011;6741;48.964;9.406;2023-12-20T06:06:10;5.37;;;4.87;;
13343;SDS011;6741;48.964;9.406;2023-12-20T06:08:37;5.60;;;5.10;;
13343;SDS011;6741;48.964;9.406;2023-12-20T06:11:04;6.73;;;5.17;;
13343;SDS011;6741;48.964;9.406;2023-12-20T06:13:31;6.50;;;5.63;;
13343;SDS011;6741;48.964;9.406;2023-12-20T06:15:58;5.83;;;5.07;;
13343;SDS011;6741;48.964;9.406;2023-12-20T06:18:25;6.53;;;5.13;;
13343;SDS011;6741;48.964;9.406;2023-12-20T06:20:52;6.03;;;5.27;;
13343;SDS011;6741;48.964;9.406;2023-12-20T06:23:20;5.23;;;4.73;;
13343;SDS011;6741;48.964;9.406;2023-12-20T06:25:47;7.07;;;5.73;;
13343;SDS011;6741;48.964;9.406;2023-12-20T06:28:14;7.40;;;4.87;;
13343;SDS011;6741;48.964;9.406;2023-12-20T06:30:41;6.23;;;5.60;;
13343;SDS011;6741;48.964;9.406;2023-12-20T06:33:07;7.03;;;5.80;;
13343;SDS011;6741;48.964;9.406;2023-12-20T06:35:36;6.47;;;5.63;;
13343;SDS011;6741;48.964;9.406;2023-12-20T06:38:03;7.37;;;5.83;;
13343;SDS011;6741;48.964;9.406;2023-12-20T06:40:31;7.17;;;6.00;;
13343;SDS011;6741;48.964;9.406;2023-12-20T06:42:58;6.23;;;5.63;;
13343;SDS011;6741;48.964;9.406;2023-12-20T06:45:25;6.13;;;5.50;;
13343;SDS011;6741;48.964;9.406;2023-12-20T06:47:52;7.43;;;5.93;;
13343;SDS011;6741;48.964;9.406;2023-12-20T06:50:19;7.33;;;5.67;;
13343;SDS011;6741;48.964;9.406;2023-12-20T06:52:46;8.37;;;6.47;;
13343;SDS011;6741;48.964;9.406;2023-12-20T06:55:14;7.20;;;6.33;;
13343;SDS011;6741;48.964;9.406;2023-12-20T06:57:43;7.90;;;7.10;;
13343;SDS011;6741;48.964;9.406;2023-12-20T07:00:11;7.37;;;6.30;;
13343;SDS011;6741;48.964;9.406;2023-12-20T07:02:38;8.43;;;6.60;;
13343;SDS011;6741;48.964;9.406;2023-12-20T07:05:05;7.77;;;6.97;;
13343;SDS011;6741;48.964;9.406;2023-12-20T07:07:32;9.90;;;7.43;;
13343;SDS011;6741;48.964;9.406;2023-12-20T07:10:00;9.50;;;8.30;;
13343;SDS011;6741;48.964;9.406;2023-12-20T07:12:27;10.70;;;8.40;;
13343;SDS011;6741;48.964;9.406;2023-12-20T07:14:55;9.20;;;7.00;;
13343;SDS011;6741;48.964;9.406;2023-12-20T07:17:22;12.37;;;8.80;;
13343;SDS011;6741;48.964;9.406;2023-12-20T07:19:49;10.47;;;8.33;;
13343;SDS011;6741;48.964;9.406;2023-12-20T07:22:15;12.77;;;8.87;;
13343;SDS011;6741;48.964;9.406;2023-12-20T07:24:42;12.00;;;9.13;;
13343;SDS011;6741;48.964;9.406;2023-12-20T07:27:09;11.33;;;8.53;;
13343;SDS011;6741;48.964;9.406;2023-12-20T07:29:36;10.50;;;8.63;;
13343;SDS011;6741;48.964;9.406;2023-12-20T07:32:05;11.67;;;8.77;;
13343;SDS011;6741;48.964;9.406;2023-12-20T07:34:33;10.83;;;9.43;;
13343;SDS011;6741;48.964;9.406;2023-12-20T07:37:00;12.80;;;9.90;;
13343;SDS011;6741;48.964;9.406;2023-12-20T07:39:27;10.97;;;8.90;;
13343;SDS011;6741;48.964;9.406;2023-12-20T07:41:54;11.17;;;8.70;;
13343;SDS011;6741;48.964;9.406;2023-12-20T07:44:21;10.73;;;9.23;;
13343;SDS011;6741;48.964;9.406;2023-12-20T07:46:47;14.10;;;9.90;;
13343;SDS011;6741;48.964;9.406;2023-12-20T07:49:16;12.10;;;10.07;;
13343;SDS011;6741;48.964;9.406;2023-12-20T07:51:43;10.80;;;9.17;;
13343;SDS011;6741;48.964;9.406;2023-12-20T07:54:10;12.40;;;9.67;;
13343;SDS011;6741;48.964;9.406;2023-12-20T07:56:36;11.90;;;10.03;;
13343;SDS011;6741;48.964;9.406;2023-12-20T07:59:05;11.93;;;9.33;;
13343;SDS011;6741;48.964;9.406;2023-12-20T08:01:31;12.13;;;10.30;;
13343;SDS011;6741;48.964;9.406;2023-12-20T08:03:58;12.90;;;10.70;;
13343;SDS011;6741;48.964;9.406;2023-12-20T08:06:26;13.10;;;10.43;;
13343;SDS011;6741;48.964;9.406;2023-12-20T08:08:53;11.63;;;9.97;;
13343;SDS011;6741;48.964;9.406;2023-12-20T08:11:20;13.10;;;10.17;;
13343;SDS011;6741;48.964;9.406;2023-12-20T08:13:47;13.60;;;10.73;;
13343;SDS011;6741;48.964;9.406;2023-12-20T08:16:14;14.67;;;10.53;;
13343;SDS011;6741;48.964;9.406;2023-12-20T08:18:42;12.00;;;9.80;;
13343;SDS011;6741;48.964;9.406;2023-12-20T08:21:09;11.03;;;9.50;;
13343;SDS011;6741;48.964;9.406;2023-12-20T08:23:38;9.90;;;8.47;;
13343;SDS011;6741;48.964;9.406;2023-12-20T08:26:05;9.60;;;8.60;;
13343;SDS011;6741;48.964;9.406;2023-12-20T08:28:32;8.93;;;8.03;;
13343;SDS011;6741;48.964;9.406;2023-12-20T08:30:59;10.20;;;8.27;;
13343;SDS011;6741;48.964;9.406;2023-12-20T08:33:26;9.70;;;8.17;;
13343;SDS011;6741;48.964;9.406;2023-12-20T08:35:53;8.50;;;7.60;;
13343;SDS011;6741;48.964;9.406;2023-12-20T08:38:19;7.90;;;7.07;;
13343;SDS011;6741;48.964;9.406;2023-12-20T08:40:48;7.10;;;6.13;;
13343;SDS011;6741;48.964;9.406;2023-12-20T08:43:14;8.70;;;7.23;;
13343;SDS011;6741;48.964;9.406;2023-12-20T08:45:41;7.40;;;6.70;;
13343;SDS011;6741;48.964;9.406;2023-12-20T08:48:08;8.60;;;6.80;;
13343;SDS011;6741;48.964;9.406;2023-12-20T08:50:35;8.40;;;6.97;;
13343;SDS011;6741;48.964;9.406;2023-12-20T08:53:02;7.67;;;6.87;;
13343;SDS011;6741;48.964;9.406;2023-12-20T08:55:29;7.43;;;6.47;;
13343;SDS011;6741;48.964;9.406;2023-12-20T08:57:57;6.80;;;6.17;;
13343;SDS011;6741;48.964;9.406;2023-12-20T09:00:24;6.53;;;5.87;;
13343;SDS011;6741;48.964;9.406;2023-12-20T09:02:52;7.90;;;6.23;;
13343;SDS011;6741;48.964;9.406;2023-12-20T09:05:20;8.73;;;6.40;;
13343;SDS011;6741;48.964;9.406;2023-12-20T09:07:47;6.47;;;5.47;;
13343;SDS011;6741;48.964;9.406;2023-12-20T09:10:14;7.80;;;6.30;;
13343;SDS011;6741;48.964;9.406;2023-12-20T09:12:41;7.43;;;5.27;;
13343;SDS011;6741;48.964;9.406;2023-12-20T09:15:09;6.27;;;4.93;;
13343;SDS011;6741;48.964;9.406;2023-12-20T09:17:36;5.73;;;5.03;;
13343;SDS011;6741;48.964;9.406;2023-12-20T09:20:03;6.73;;;4.30;;
13343;SDS011;6741;48.964;9.406;2023-12-20T09:22:32;4.03;;;3.60;;
13343;SDS011;6741;48.964;9.406;2023-12-20T09:24:58;4.77;;;4.30;;
13343;SDS011;6741;48.964;9.406;2023-12-20T09:27:26;5.37;;;3.80;;
13343;SDS011;6741;48.964;9.406;2023-12-20T09:29:53;3.97;;;3.27;;
13343;SDS011;6741;48.964;9.406;2023-12-20T09:32:21;4.10;;;3.67;;
13343;SDS011;6741;48.964;9.406;2023-12-20T09:34:48;3.93;;;3.40;;
13343;SDS011;6741;48.964;9.406;2023-12-20T09:37:15;4.77;;;4.03;;
13343;SDS011;6741;48.964;9.406;2023-12-20T09:39:42;4.63;;;3.60;;
13343;SDS011;6741;48.964;9.406;2023-12-20T09:42:09;4.70;;;3.97;;
13343;SDS011;6741;48.964;9.406;2023-12-20T09:44:42;4.70;;;3.97;;
13343;SDS011;6741;48.964;9.406;2023-12-20T09:47:09;5.60;;;4.13;;
13343;SDS011;6741;48.964;9.406;2023-12-20T09:49:38;4.50;;;4.10;;
13343;SDS011;6741;48.964;9.406;2023-12-20T09:52:05;6.20;;;3.90;;
13343;SDS011;6741;48.964;9.406;2023-12-20T09:54:35;4.20;;;3.80;;
13343;SDS011;6741;48.964;9.406;2023-12-20T09:57:02;4.40;;;4.00;;
13343;SDS011;6741;48.964;9.406;2023-12-20T09:59:30;3.40;;;3.10;;
13343;SDS011;6741;48.964;9.406;2023-12-20T10:01:57;4.10;;;3.73;;
13343;SDS011;6741;48.964;9.406;2023-12-20T10:04:28;5.20;;;3.53;;
13343;SDS011;6741;48.964;9.406;2023-12-20T10:07:02;6.07;;;3.10;;
13343;SDS011;6741;48.964;9.406;2023-12-20T10:09:30;6.60;;;3.00;;
13343;SDS011;6741;48.964;9.406;2023-12-20T10:11:59;4.63;;;2.87;;
13343;SDS011;6741;48.964;9.406;2023-12-20T10:14:26;5.53;;;2.80;;
13343;SDS011;6741;48.964;9.406;2023-12-20T10:16:53;6.60;;;3.00;;
13343;SDS011;6741;48.964;9.406;2023-12-20T10:19:27;4.97;;;2.37;;
13343;SDS011;6741;48.964;9.406;2023-12-20T10:21:54;5.13;;;2.57;;
13343;SDS011;6741;48.964;9.406;2023-12-20T10:24:22;2.93;;;2.17;;
13343;SDS011;6741;48.964;9.406;2023-12-20T10:26:51;3.70;;;2.33;;
13343;SDS011;6741;48.964;9.406;2023-12-20T10:29:30;7.13;;;2.20;;
13343;SDS011;6741;48.964;9.406;2023-12-20T10:31:58;8.17;;;2.77;;
13343;SDS011;6741;48.964;9.406;2023-12-20T10:34:25;3.67;;;2.23;;
13343;SDS011;6741;48.964;9.406;2023-12-20T10:36:52;5.53;;;2.47;;
13343;SDS011;6741;48.964;9.406;2023-12-20T10:39:19;3.90;;;2.13;;
13343;SDS011;6741;48.964;9.406;2023-12-20T10:41:48;5.73;;;2.63;;
13343;SDS011;6741;48.964;9.406;2023-12-20T10:44:15;3.40;;;2.13;;
13343;SDS011;6741;48.964;9.406;2023-12-20T10:46:43;6.50;;;2.13;;
13343;SDS011;6741;48.964;9.406;2023-12-20T10:49:16;3.37;;;2.23;;
13343;SDS011;6741;48.964;9.406;2023-12-20T10:51:45;4.23;;;1.93;;
13343;SDS011;6741;48.964;9.406;2023-12-20T10:54:13;2.07;;;1.77;;
13343;SDS011;6741;48.964;9.406;2023-12-20T10:56:40;3.90;;;1.90;;
13343;SDS011;6741;48.964;9.406;2023-12-20T10:59:09;4.80;;;1.70;;
13343;SDS011;6741;48.964;9.406;2023-12-20T11:01:37;5.37;;;1.67;;
13343;SDS011;6741;48.964;9.406;2023-12-20T11:04:07;3.30;;;1.40;;
13343;SDS011;6741;48.964;9.406;2023-12-20T11:06:42;1.97;;;1.40;;
13343;SDS011;6741;48.964;9.406;2023-12-20T11:09:14;3.50;;;1.27;;
13343;SDS011;6741;48.964;9.406;2023-12-20T11:14:39;3.57;;;1.53;;
13343;SDS011;6741;48.964;9.406;2023-12-20T11:17:09;4.23;;;1.73;;
13343;SDS011;6741;48.964;9.406;2023-12-20T11:19:43;2.53;;;1.20;;
13343;SDS011;6741;48.964;9.406;2023-12-20T11:22:31;4.90;;;1.90;;
13343;SDS011;6741;48.964;9.406;2023-12-20T11:24:59;4.93;;;2.17;;
13343;SDS011;6741;48.964;9.406;2023-12-20T11:27:30;5.67;;;1.53;;
13343;SDS011;6741;48.964;9.406;2023-12-20T11:29:58;3.27;;;1.80;;
13343;SDS011;6741;48.964;9.406;2023-12-20T11:32:28;2.43;;;1.67;;
13343;SDS011;6741;48.964;9.406;2023-12-20T11:34:56;3.30;;;1.40;;
13343;SDS011;6741;48.964;9.406;2023-12-20T11:37:28;7.13;;;1.43;;
13343;SDS011;6741;48.964;9.406;2023-12-20T11:39:56;1.87;;;1.27;;
13343;SDS011;6741;48.964;9.406;2023-12-20T11:42:27;5.57;;;1.30;;
13343;SDS011;6741;48.964;9.406;2023-12-20T11:44:59;4.33;;;2.30;;
13343;SDS011;6741;48.964;9.406;2023-12-20T11:47:28;1.93;;;1.60;;
13343;SDS011;6741;48.964;9.406;2023-12-20T11:49:56;2.60;;;1.37;;
13343;SDS011;6741;48.964;9.406;2023-12-20T11:52:25;6.67;;;1.60;;
13343;SDS011;6741;48.964;9.406;2023-12-20T11:54:52;2.60;;;1.40;;
13343;SDS011;6741;48.964;9.406;2023-12-20T11:57:19;4.63;;;1.67;;
13343;SDS011;6741;48.964;9.406;2023-12-20T11:59:46;4.53;;;1.67;;
13343;SDS011;6741;48.964;9.406;2023-12-20T12:02:14;3.23;;;1.83;;
13343;SDS011;6741;48.964;9.406;2023-12-20T12:04:41;2.37;;;1.70;;
13343;SDS011;6741;48.964;9.406;2023-12-20T12:07:08;3.97;;;1.70;;
13343;SDS011;6741;48.964;9.406;2023-12-20T12:09:35;2.40;;;2.20;;
13343;SDS011;6741;48.964;9.406;2023-12-20T12:12:02;5.37;;;1.90;;
13343;SDS011;6741;48.964;9.406;2023-12-20T12:14:29;4.70;;;2.20;;
13343;SDS011;6741;48.964;9.406;2023-12-20T12:16:56;5.10;;;2.33;;
13343;SDS011;6741;48.964;9.406;2023-12-20T12:19:25;6.13;;;2.00;;
13343;SDS011;6741;48.964;9.406;2023-12-20T12:22:03;5.83;;;2.60;;
13343;SDS011;6741;48.964;9.406;2023-12-20T12:24:32;2.70;;;2.00;;
13343;SDS011;6741;48.964;9.406;2023-12-20T12:26:59;6.63;;;1.97;;
13343;SDS011;6741;48.964;9.406;2023-12-20T12:29:26;2.97;;;2.27;;
13343;SDS011;6741;48.964;9.406;2023-12-20T12:31:53;3.13;;;1.90;;
13343;SDS011;6741;48.964;9.406;2023-12-20T12:34:21;11.30;;;3.53;;
13343;SDS011;6741;48.964;9.406;2023-12-20T12:36:49;3.73;;;2.20;;
13343;SDS011;6741;48.964;9.406;2023-12-20T12:39:17;4.37;;;2.17;;
13343;SDS011;6741;48.964;9.406;2023-12-20T12:41:44;6.33;;;2.07;;
13343;SDS011;6741;48.964;9.406;2023-12-20T12:44:11;5.73;;;2.57;;
13343;SDS011;6741;48.964;9.406;2023-12-20T12:46:38;4.63;;;2.30;;
13343;SDS011;6741;48.964;9.406;2023-12-20T12:49:05;2.97;;;1.90;;
13343;SDS011;6741;48.964;9.406;2023-12-20T12:51:32;6.23;;;2.20;;
13343;SDS011;6741;48.964;9.406;2023-12-20T12:54:00;3.23;;;2.20;;
13343;SDS011;6741;48.964;9.406;2023-12-20T12:56:27;5.97;;;2.13;;
13343;SDS011;6741;48.964;9.406;2023-12-20T12:58:54;5.10;;;2.23;;
13343;SDS011;6741;48.964;9.406;2023-12-20T13:01:21;5.93;;;2.50;;
13343;SDS011;6741;48.964;9.406;2023-12-20T13:03:48;6.80;;;1.93;;
13343;SDS011;6741;48.964;9.406;2023-12-20T13:06:15;7.63;;;2.80;;
13343;SDS011;6741;48.964;9.406;2023-12-20T13:08:42;4.37;;;2.47;;
13343;SDS011;6741;48.964;9.406;2023-12-20T13:11:11;3.13;;;1.83;;
13343;SDS011;6741;48.964;9.406;2023-12-20T13:13:38;5.80;;;2.33;;
13343;SDS011;6741;48.964;9.406;2023-12-20T13:16:05;2.37;;;1.63;;
13343;SDS011;6741;48.964;9.406;2023-12-20T13:18:32;4.47;;;2.30;;
13343;SDS011;6741;48.964;9.406;2023-12-20T13:20:59;3.07;;;1.70;;
13343;SDS011;6741;48.964;9.406;2023-12-20T13:23:26;6.43;;;2.17;;
13343;SDS011;6741;48.964;9.406;2023-12-20T13:25:53;3.67;;;1.73;;
13343;SDS011;6741;48.964;9.406;2023-12-20T13:28:21;4.63;;;2.40;;
13343;SDS011;6741;48.964;9.406;2023-12-20T13:30:48;5.07;;;2.00;;
13343;SDS011;6741;48.964;9.406;2023-12-20T13:33:15;3.27;;;2.07;;
13343;SDS011;6741;48.964;9.406;2023-12-20T13:35:41;4.57;;;2.50;;
13343;SDS011;6741;48.964;9.406;2023-12-20T13:38:07;3.93;;;2.03;;
13343;SDS011;6741;48.964;9.406;2023-12-20T13:40:35;5.87;;;2.50;;
13343;SDS011;6741;48.964;9.406;2023-12-20T13:43:01;5.93;;;2.70;;
13343;SDS011;6741;48.964;9.406;2023-12-20T13:45:30;4.53;;;2.10;;
13343;SDS011;6741;48.964;9.406;2023-12-20T13:47:58;5.93;;;2.00;;
13343;SDS011;6741;48.964;9.406;2023-12-20T13:50:25;5.00;;;2.43;;
13343;SDS011;6741;48.964;9.406;2023-12-20T13:52:52;9.33;;;2.17;;
13343;SDS011;6741;48.964;9.406;2023-12-20T13:55:19;6.20;;;2.40;;
13343;SDS011;6741;48.964;9.406;2023-12-20T13:57:47;4.00;;;1.80;;
13343;SDS011;6741;48.964;9.406;2023-12-20T14:00:14;7.67;;;2.83;;
13343;SDS011;6741;48.964;9.406;2023-12-20T14:02:43;8.73;;;2.37;;
13343;SDS011;6741;48.964;9.406;2023-12-20T14:05:12;3.87;;;2.23;;
13343;SDS011;6741;48.964;9.406;2023-12-20T14:07:43;3.23;;;1.73;;
13343;SDS011;6741;48.964;9.406;2023-12-20T14:10:11;6.33;;;2.00;;
13343;SDS011;6741;48.964;9.406;2023-12-20T14:12:39;3.47;;;1.90;;
13343;SDS011;6741;48.964;9.406;2023-12-20T14:15:07;5.67;;;1.80;;
13343;SDS011;6741;48.964;9.406;2023-12-20T14:17:36;5.03;;;2.03;;
13343;SDS011;6741;48.964;9.406;2023-12-20T14:20:05;4.77;;;1.97;;
13343;SDS011;6741;48.964;9.406;2023-12-20T14:22:33;2.53;;;1.90;;
13343;SDS011;6741;48.964;9.406;2023-12-20T14:25:00;3.03;;;1.90;;
13343;SDS011;6741;48.964;9.406;2023-12-20T14:27:26;8.30;;;2.80;;
13343;SDS011;6741;48.964;9.406;2023-12-20T14:29:54;4.67;;;2.57;;
13343;SDS011;6741;48.964;9.406;2023-12-20T14:32:20;4.83;;;2.67;;
13343;SDS011;6741;48.964;9.406;2023-12-20T14:34:47;5.00;;;2.57;;
13343;SDS011;6741;48.964;9.406;2023-12-20T14:37:16;8.20;;;3.20;;
13343;SDS011;6741;48.964;9.406;2023-12-20T14:39:42;12.70;;;4.90;;
13343;SDS011;6741;48.964;9.406;2023-12-20T14:42:09;5.73;;;2.70;;
13343;SDS011;6741;48.964;9.406;2023-12-20T14:44:39;6.87;;;3.07;;
13343;SDS011;6741;48.964;9.406;2023-12-20T14:47:06;4.03;;;2.67;;
13343;SDS011;6741;48.964;9.406;2023-12-20T14:49:33;3.70;;;2.50;;
13343;SDS011;6741;48.964;9.406;2023-12-20T14:52:00;4.23;;;2.93;;
13343;SDS011;6741;48.964;9.406;2023-12-20T14:54:28;7.67;;;2.50;;
13343;SDS011;6741;48.964;9.406;2023-12-20T14:56:55;5.53;;;2.57;;
13343;SDS011;6741;48.964;9.406;2023-12-20T14:59:23;7.67;;;2.90;;
13343;SDS011;6741;48.964;9.406;2023-12-20T15:01:50;4.37;;;2.70;;